Time;durP1;ratioP1;P1;durP2;ratioP2;P2;SDS_P1;SDS_P2;PMS_P1;PMS_P2;Temp;Humidity;BMP_temperature;BMP_pressure;BME280_temperature;BME280_humidity;BME280_pressure;Samples;Min_cycle;Max_cycle;Signal;HPM_P1;HPM_P2
2022/10/23 00:01:36;;;;;;;8.57;4.10;;;;;;;18.45;63.94;101325.03;4968209;28;99002;-67
2022/10/23 00:04:05;;;;;;;8.05;4.03;;;;;;;18.11;65.06;101327.97;4968746;28;101921;-68
2022/10/23 00:06:34;;;;;;;9.85;4.47;;;;;;;18.43;63.72;101334.97;4969263;28;98628;-68
2022/10/23 00:09:01;;;;;;;7.55;4.15;;;;;;;18.37;64.07;101343.38;4970054;28;98935;-67
2022/10/23 00:11:30;;;;;;;10.25;4.88;;;;;;;18.30;64.48;101331.28;4968045;28;99318;-68
2022/10/23 00:13:59;;;;;;;7.28;4.15;;;;;;;18.29;64.61;101329.56;4971841;28;98685;-68
2022/10/23 00:16:25;;;;;;;11.27;4.60;;;;;;;18.23;64.78;101340.63;4970400;28;97001;-68
2022/10/23 00:18:51;;;;;;;15.00;4.22;;;;;;;18.15;64.68;101346.41;4973350;28;97049;-68
2022/10/23 00:21:18;;;;;;;9.35;5.00;;;;;;;18.23;64.57;101346.84;4967761;28;99014;-68
2022/10/23 00:23:46;;;;;;;11.75;4.90;;;;;;;18.32;64.42;101348.09;4970691;28;98487;-67
2022/10/23 00:26:14;;;;;;;13.90;4.57;;;;;;;18.07;64.96;101350.47;4968385;28;99351;-68
2022/10/23 00:28:41;;;;;;;11.85;4.97;;;;;;;18.12;64.48;101354.59;4969348;28;98591;-67
2022/10/23 00:31:08;;;;;;;10.85;4.55;;;;;;;18.25;64.33;101360.09;4970023;28;99195;-68
2022/10/23 00:33:34;;;;;;;18.02;5.95;;;;;;;18.09;64.96;101353.91;4969060;28;99573;-67
2022/10/23 00:36:03;;;;;;;7.80;4.57;;;;;;;18.04;65.13;101356.88;4969540;28;97455;-68
2022/10/23 00:38:29;;;;;;;8.80;4.47;;;;;;;18.36;63.91;101352.34;4970249;28;96890;-69
2022/10/23 00:40:57;;;;;;;8.32;4.28;;;;;;;18.18;64.43;101354.25;4969152;28;99047;-67
2022/10/23 00:43:26;;;;;;;8.70;4.72;;;;;;;18.28;64.02;101357.25;4969736;28;99049;-67
2022/10/23 00:45:52;;;;;;;8.23;4.28;;;;;;;18.36;63.54;101365.72;4969751;28;96948;-67
2022/10/23 00:48:20;;;;;;;10.10;5.03;;;;;;;18.45;63.16;101356.25;4969509;28;98521;-67
2022/10/23 00:50:48;;;;;;;10.65;4.55;;;;;;;18.26;63.86;101359.16;4963298;28;99179;-68
2022/10/23 00:53:16;;;;;;;12.05;4.22;;;;;;;18.51;63.06;101363.97;4970509;28;98913;-67
2022/10/23 00:55:45;;;;;;;8.70;3.65;;;;;;;18.42;63.34;101356.47;4968419;28;98032;-67
2022/10/23 00:58:14;;;;;;;7.75;3.80;;;;;;;18.59;62.62;101359.91;4969211;28;96977;-67
2022/10/23 01:00:45;;;;;;;6.97;4.15;;;;;;;18.69;62.35;101361.09;4971725;28;99159;-68
2022/10/23 01:03:13;;;;;;;8.52;3.80;;;;;;;18.40;62.75;101364.56;4971852;28;99919;-68
2022/10/23 01:05:47;;;;;;;10.35;3.88;;;;;;;18.69;62.02;101362.91;4973020;28;98692;-67
2022/10/23 01:08:19;;;;;;;8.88;3.90;;;;;;;18.55;62.40;101363.72;4968477;28;96732;-68
2022/10/23 01:10:52;;;;;;;8.45;3.92;;;;;;;18.63;61.84;101363.28;4974958;28;99276;-69
2022/10/23 01:13:28;;;;;;;10.98;4.00;;;;;;;18.61;62.00;101363.34;4972686;28;99455;-67
2022/10/23 01:16:02;;;;;;;6.78;4.05;;;;;;;18.52;61.92;101363.84;4976244;28;97036;-68
2022/10/23 01:18:39;;;;;;;11.88;3.75;;;;;;;18.73;61.24;101352.84;4975118;28;98530;-68
2022/10/23 01:21:09;;;;;;;8.57;4.22;;;;;;;18.50;61.97;101359.56;4974082;28;99011;-67
2022/10/23 01:23:53;;;;;;;11.02;3.53;;;;;;;18.55;61.91;101358.38;4974855;28;98945;-69
2022/10/23 01:26:51;;;;;;;12.43;4.07;;;;;;;18.59;61.85;101362.56;4967783;28;99769;-68
2022/10/23 01:29:24;;;;;;;12.88;4.10;;;;;;;18.38;62.42;101358.44;4970921;28;96826;-67
2022/10/23 01:31:57;;;;;;;9.32;4.30;;;;;;;18.50;62.06;101365.78;4974693;28;98981;-67
2022/10/23 01:34:30;;;;;;;13.68;4.40;;;;;;;18.49;61.97;101365.84;4973820;28;100807;-67
2022/10/23 01:36:59;;;;;;;13.48;4.03;;;;;;;18.30;62.96;101363.41;4974414;28;96980;-68
2022/10/23 01:39:30;;;;;;;9.18;3.80;;;;;;;18.32;62.47;101364.16;4973761;28;97424;-68
2022/10/23 01:42:04;;;;;;;7.57;4.18;;;;;;;18.33;62.67;101364.06;4967029;28;98952;-67
2022/10/23 01:44:36;;;;;;;8.48;4.30;;;;;;;18.47;62.03;101371.28;4969832;28;98904;-69
2022/10/23 01:47:05;;;;;;;12.55;4.57;;;;;;;18.38;62.48;101371.81;4972458;28;97209;-68
2022/10/23 01:49:33;;;;;;;7.93;3.88;;;;;;;18.59;61.77;101375.94;4971009;28;97759;-68
2022/10/23 01:52:02;;;;;;;7.75;4.22;;;;;;;18.35;62.34;101376.50;4971263;28;99012;-69
2022/10/23 01:54:32;;;;;;;10.93;4.53;;;;;;;18.50;61.75;101373.81;4970011;28;98798;-68
2022/10/23 01:56:59;;;;;;;14.85;4.05;;;;;;;18.47;61.88;101363.25;4971891;28;98008;-68
2022/10/23 01:59:32;;;;;;;8.95;4.28;;;;;;;18.28;62.39;101366.16;4969576;28;96913;-70
2022/10/23 02:02:02;;;;;;;10.23;4.40;;;;;;;18.17;62.97;101367.72;4975174;28;98942;-69
2022/10/23 02:04:33;;;;;;;6.55;4.15;;;;;;;18.34;62.01;101370.28;4975805;28;98243;-68
2022/10/23 02:07:00;;;;;;;9.05;5.03;;;;;;;18.40;61.87;101361.91;4974307;28;98337;-67
2022/10/23 02:09:27;;;;;;;7.05;3.90;;;;;;;18.21;62.26;101354.06;4970611;28;96981;-68
2022/10/23 02:11:59;;;;;;;12.48;4.35;;;;;;;18.36;62.02;101363.03;4970911;28;98919;-67
2022/10/23 02:14:36;;;;;;;11.00;4.97;;;;;;;18.22;62.71;101355.81;4972661;28;97497;-68
2022/10/23 02:17:14;;;;;;;7.93;4.50;;;;;;;18.37;61.90;101353.19;4969770;28;97640;-67
2022/10/23 02:19:46;;;;;;;9.02;4.00;;;;;;;18.50;61.67;101360.41;4973529;28;97350;-69
2022/10/23 02:22:18;;;;;;;13.15;4.53;;;;;;;18.35;61.70;101358.63;4974099;28;99030;-67
2022/10/23 02:24:51;;;;;;;14.07;4.82;;;;;;;18.54;61.20;101356.59;4970832;28;101489;-68
2022/10/23 02:27:23;;;;;;;6.30;4.10;;;;;;;18.64;60.88;101360.47;4974050;28;96831;-67
2022/10/23 02:29:53;;;;;;;12.15;4.25;;;;;;;18.59;61.02;101354.53;4968542;28;96768;-68
2022/10/23 02:32:23;;;;;;;7.53;4.10;;;;;;;18.55;61.00;101357.47;4970222;28;99021;-68
2022/10/23 02:34:50;;;;;;;7.32;4.03;;;;;;;18.45;61.31;101351.78;4972305;28;98916;-68
2022/10/23 02:37:16;;;;;;;9.88;4.50;;;;;;;18.61;60.45;101355.31;4972553;28;98655;-67
2022/10/23 02:39:43;;;;;;;11.70;4.35;;;;;;;18.19;61.93;101347.94;4971770;28;97286;-67
2022/10/23 02:42:14;;;;;;;10.25;4.53;;;;;;;18.26;61.77;101349.31;4970355;28;99462;-68
2022/10/23 02:44:49;;;;;;;8.35;4.38;;;;;;;18.09;61.98;101353.91;4970119;28;99123;-67
2022/10/23 02:47:29;;;;;;;8.30;4.50;;;;;;;18.24;61.93;101350.38;4971605;28;98615;-66
2022/10/23 02:50:03;;;;;;;9.98;4.10;;;;;;;18.35;61.62;101347.94;4971215;28;97667;-67
2022/10/23 02:52:38;;;;;;;12.90;4.63;;;;;;;18.41;60.94;101342.22;4970479;28;98980;-68
2022/10/23 02:55:20;;;;;;;12.75;4.65;;;;;;;18.21;61.66;101348.72;4969004;28;99328;-67
2022/10/23 02:57:51;;;;;;;12.93;4.43;;;;;;;18.06;61.74;101354.94;4970386;28;98890;-67
2022/10/23 03:00:20;;;;;;;10.55;4.45;;;;;;;18.06;62.15;101359.44;4972303;28;99667;-67
2022/10/23 03:02:54;;;;;;;6.45;4.25;;;;;;;18.31;61.39;101354.44;4969360;28;99493;-67
2022/10/23 03:05:23;;;;;;;7.93;4.65;;;;;;;18.04;62.20;101356.88;4972799;28;99424;-67
2022/10/23 03:07:50;;;;;;;15.50;4.32;;;;;;;18.09;62.13;101353.91;4968488;28;96793;-66
2022/10/23 03:10:16;;;;;;;10.32;5.40;;;;;;;17.83;62.43;101353.59;4969946;28;96972;-67
2022/10/23 03:12:43;;;;;;;7.35;4.50;;;;;;;17.95;62.15;101348.50;4967128;28;99060;-68
2022/10/23 03:15:11;;;;;;;14.13;5.18;;;;;;;17.91;62.49;101351.34;4975576;28;98078;-68
2022/10/23 03:17:38;;;;;;;13.88;5.78;;;;;;;17.92;62.66;101354.84;4972525;28;96842;-68
2022/10/23 03:20:07;;;;;;;13.23;4.95;;;;;;;17.97;62.18;101349.28;4969269;28;97689;-68
2022/10/23 03:22:34;;;;;;;7.25;4.18;;;;;;;17.81;62.41;101350.13;4968884;28;98948;-67
2022/10/23 03:25:00;;;;;;;12.35;5.28;;;;;;;18.03;61.84;101348.91;4969258;28;97605;-68
2022/10/23 03:27:26;;;;;;;11.05;4.43;;;;;;;17.96;62.37;101347.53;4977018;28;96916;-68
2022/10/23 03:29:53;;;;;;;19.73;4.70;;;;;;;18.02;62.36;101352.53;4971262;28;96817;-67
2022/10/23 03:32:19;;;;;;;8.63;4.85;;;;;;;17.90;62.69;101351.44;4977112;28;99885;-67
2022/10/23 03:34:45;;;;;;;8.95;4.55;;;;;;;17.95;62.29;101351.16;4971091;28;99437;-67
2022/10/23 03:37:13;;;;;;;9.20;4.75;;;;;;;18.00;62.24;101355.28;4972166;28;96868;-67
2022/10/23 03:39:40;;;;;;;12.52;4.55;;;;;;;18.03;61.83;101355.13;4971979;28;96813;-67
2022/10/23 03:42:06;;;;;;;10.13;4.90;;;;;;;17.88;62.15;101359.53;4967212;28;99516;-67
2022/10/23 03:44:33;;;;;;;7.20;4.35;;;;;;;18.03;61.84;101351.59;4969071;28;99132;-67
2022/10/23 03:46:59;;;;;;;6.18;4.65;;;;;;;18.04;61.93;101364.03;4972254;28;98843;-67
2022/10/23 03:49:26;;;;;;;6.65;4.63;;;;;;;17.77;62.48;101367.28;4974299;28;96930;-67
2022/10/23 03:51:52;;;;;;;10.88;4.90;;;;;;;17.80;62.44;101360.91;4969428;28;99112;-67
2022/10/23 03:54:22;;;;;;;7.78;4.15;;;;;;;17.49;63.11;101369.72;4968769;28;98938;-67
2022/10/23 03:56:48;;;;;;;13.82;5.05;;;;;;;17.87;62.11;101360.47;4966252;28;96898;-67
2022/10/23 03:59:15;;;;;;;12.07;4.85;;;;;;;17.45;63.11;101366.38;4967579;28;96966;-67
2022/10/23 04:01:41;;;;;;;9.50;4.45;;;;;;;17.33;63.42;101363.47;4970268;28;99325;-67
2022/10/23 04:04:07;;;;;;;9.13;5.18;;;;;;;17.39;63.39;101371.16;4969493;28;98835;-67
2022/10/23 04:06:34;;;;;;;10.60;5.10;;;;;;;17.29;63.76;101368.13;4968533;28;96835;-68
2022/10/23 04:09:01;;;;;;;10.52;5.35;;;;;;;17.42;63.42;101362.97;4970245;28;98584;-67
2022/10/23 04:11:28;;;;;;;8.00;5.45;;;;;;;17.37;63.57;101370.38;4966145;28;99055;-67
2022/10/23 04:13:55;;;;;;;10.02;5.50;;;;;;;17.27;63.59;101369.13;4967709;28;99197;-67
2022/10/23 04:16:21;;;;;;;6.95;4.97;;;;;;;17.07;63.67;101370.19;4972441;28;96799;-67
2022/10/23 04:18:48;;;;;;;7.55;5.07;;;;;;;17.09;63.62;101365.63;4969530;28;97134;-67
2022/10/23 04:21:14;;;;;;;10.90;5.20;;;;;;;16.99;63.87;101359.06;4969566;28;102539;-67
2022/10/23 04:23:41;;;;;;;9.07;4.95;;;;;;;17.08;63.38;101356.75;4968365;28;101729;-67
2022/10/23 04:26:07;;;;;;;12.25;4.90;;;;;;;16.96;63.70;101367.22;4969050;28;97085;-68
2022/10/23 04:28:35;;;;;;;9.15;5.30;;;;;;;16.68;64.32;101362.44;4969418;28;98469;-68
2022/10/23 04:31:01;;;;;;;10.40;5.07;;;;;;;17.06;63.55;101352.47;4970982;28;99269;-67
2022/10/23 04:33:27;;;;;;;10.63;4.95;;;;;;;17.03;63.64;101350.81;4972609;28;99314;-68
2022/10/23 04:35:54;;;;;;;13.02;5.32;;;;;;;17.07;63.25;101349.69;4973401;28;96912;-68
2022/10/23 04:38:20;;;;;;;11.85;5.03;;;;;;;17.08;63.40;101353.22;4974371;28;98588;-68
2022/10/23 04:40:46;;;;;;;10.50;5.65;;;;;;;17.14;63.09;101348.41;4971212;28;98885;-66
2022/10/23 04:43:13;;;;;;;12.88;6.10;;;;;;;17.28;62.58;101350.34;4972507;28;99129;-67
2022/10/23 04:45:40;;;;;;;9.63;5.50;;;;;;;17.00;63.32;101356.28;4969616;28;98631;-68
2022/10/23 04:48:07;;;;;;;11.88;5.07;;;;;;;16.77;63.49;101366.44;4972806;28;96870;-68
2022/10/23 04:50:33;;;;;;;12.40;5.13;;;;;;;16.62;63.66;101360.94;4972926;28;98052;-67
2022/10/23 04:52:59;;;;;;;14.75;5.38;;;;;;;16.46;64.51;101361.78;4972689;28;98903;-67
2022/10/23 04:55:26;;;;;;;9.55;5.30;;;;;;;16.44;64.63;101355.66;4974536;28;97088;-67
2022/10/23 04:57:52;;;;;;;8.30;4.78;;;;;;;16.58;63.82;101364.69;4974374;28;96863;-68
2022/10/23 05:00:19;;;;;;;14.90;5.38;;;;;;;16.34;64.57;101369.44;4972279;28;99179;-68
2022/10/23 05:02:47;;;;;;;10.57;5.68;;;;;;;16.38;64.37;101372.81;4972906;28;99471;-68
2022/10/23 05:05:14;;;;;;;10.18;5.95;;;;;;;16.49;64.32;101367.81;4971551;28;96901;-68
2022/10/23 05:07:40;;;;;;;12.52;6.15;;;;;;;16.53;64.33;101358.72;4975283;28;96876;-67
2022/10/23 05:10:07;;;;;;;11.75;5.57;;;;;;;16.44;64.39;101358.31;4972842;28;99050;-67
2022/10/23 05:12:34;;;;;;;9.05;5.55;;;;;;;16.45;63.78;101357.38;4971989;28;98292;-67
2022/10/23 05:15:00;;;;;;;7.70;5.43;;;;;;;16.21;64.57;101365.63;4974458;28;96943;-67
2022/10/23 05:17:29;;;;;;;9.90;5.65;;;;;;;16.18;64.71;101357.81;4978734;28;97100;-67
2022/10/23 05:20:01;;;;;;;10.00;5.32;;;;;;;16.37;64.56;101355.09;4971101;28;100039;-67
2022/10/23 05:22:32;;;;;;;10.55;6.70;;;;;;;16.56;64.00;101355.88;4977620;28;98948;-67
2022/10/23 05:25:00;;;;;;;9.32;5.82;;;;;;;16.37;64.28;101357.75;4974873;28;97727;-68
2022/10/23 05:27:27;;;;;;;12.43;6.18;;;;;;;16.30;64.29;101364.34;4975054;28;96841;-67
2022/10/23 05:29:54;;;;;;;9.45;5.60;;;;;;;16.50;64.23;101361.53;4975485;28;101925;-67
2022/10/23 05:32:21;;;;;;;11.55;7.20;;;;;;;16.37;64.95;101362.22;4971730;28;99041;-67
2022/10/23 05:34:47;;;;;;;9.80;6.82;;;;;;;16.56;64.66;101365.69;4968995;28;96734;-68
2022/10/23 05:37:16;;;;;;;17.70;6.60;;;;;;;16.69;63.74;101367.69;4975030;28;98262;-67
2022/10/23 05:39:43;;;;;;;9.68;6.20;;;;;;;16.49;64.49;101366.94;4971216;28;99010;-67
2022/10/23 05:42:09;;;;;;;13.25;7.18;;;;;;;16.57;64.44;101375.44;4973071;28;98813;-68
2022/10/23 05:44:36;;;;;;;15.80;7.72;;;;;;;16.89;63.37;101365.81;4970233;28;98755;-68
2022/10/23 05:47:02;;;;;;;13.18;7.45;;;;;;;16.99;63.17;101353.72;4971698;28;99428;-68
2022/10/23 05:49:28;;;;;;;13.63;7.05;;;;;;;16.94;63.07;101369.09;4972588;28;97955;-68
2022/10/23 05:51:55;;;;;;;12.70;7.13;;;;;;;16.60;63.92;101376.19;4968815;28;97734;-67
2022/10/23 05:54:22;;;;;;;12.68;6.72;;;;;;;16.61;63.86;101374.34;4970993;28;99155;-67
2022/10/23 05:56:49;;;;;;;12.35;6.50;;;;;;;16.70;63.53;101380.09;4970581;28;96867;-68
2022/10/23 05:59:15;;;;;;;12.23;7.05;;;;;;;16.54;64.22;101375.59;4971769;28;98783;-67
2022/10/23 06:01:42;;;;;;;22.23;7.50;;;;;;;16.61;63.96;101379.69;4971385;28;100926;-69
2022/10/23 06:04:08;;;;;;;15.07;6.90;;;;;;;16.47;64.38;101377.72;4971215;28;96869;-68
2022/10/23 06:06:35;;;;;;;14.35;6.47;;;;;;;16.57;64.14;101370.09;4974434;28;96912;-68
2022/10/23 06:09:02;;;;;;;13.48;7.65;;;;;;;16.58;64.47;101364.69;4969126;28;99008;-68
2022/10/23 06:11:30;;;;;;;8.85;6.88;;;;;;;16.69;64.02;101366.84;4967170;28;98842;-68
2022/10/23 06:13:56;;;;;;;16.45;8.02;;;;;;;16.40;64.81;101364.75;4967439;28;98664;-67
2022/10/23 06:16:25;;;;;;;12.02;7.30;;;;;;;16.70;64.37;101371.22;4971964;28;97610;-67
2022/10/23 06:18:52;;;;;;;16.23;7.45;;;;;;;16.40;65.22;101372.75;4970342;28;98723;-68
2022/10/23 06:21:18;;;;;;;13.73;6.95;;;;;;;16.61;64.47;101364.56;4970061;28;98909;-67
2022/10/23 06:23:46;;;;;;;11.15;6.75;;;;;;;16.92;63.80;101363.00;4967996;28;99071;-68
2022/10/23 06:26:14;;;;;;;19.05;7.40;;;;;;;16.87;63.48;101368.56;4972777;28;98694;-68
2022/10/23 06:28:42;;;;;;;10.27;6.88;;;;;;;16.78;63.67;101361.03;4971563;28;99321;-70
2022/10/23 06:31:11;;;;;;;13.20;6.53;;;;;;;16.96;63.21;101367.22;4967454;28;99304;-68
2022/10/23 06:33:37;;;;;;;13.27;6.63;;;;;;;17.14;62.46;101356.44;4970138;28;98962;-69
2022/10/23 06:36:05;;;;;;;11.30;6.50;;;;;;;17.02;62.92;101359.75;4973639;28;96940;-68
2022/10/23 06:38:35;;;;;;;13.35;6.45;;;;;;;16.57;64.10;101362.09;4972350;28;99452;-67
2022/10/23 06:41:02;;;;;;;12.68;6.97;;;;;;;16.56;63.91;101357.69;4965831;28;98933;-68
2022/10/23 06:43:28;;;;;;;12.63;6.85;;;;;;;17.24;62.56;101366.63;4968001;28;96874;-67
2022/10/23 06:45:56;;;;;;;15.27;7.72;;;;;;;17.11;62.61;101361.97;4972283;28;96956;-68
2022/10/23 06:48:22;;;;;;;12.13;6.93;;;;;;;17.05;62.77;101375.63;4968869;28;101697;-68
2022/10/23 06:50:48;;;;;;;12.10;6.95;;;;;;;17.07;62.50;101375.53;4971521;28;99545;-68
2022/10/23 06:53:15;;;;;;;16.70;7.78;;;;;;;17.04;63.03;101375.69;4970691;28;98322;-68
2022/10/23 06:55:41;;;;;;;13.02;7.38;;;;;;;17.05;63.44;101382.78;4968843;28;97445;-68
2022/10/23 06:58:09;;;;;;;11.27;7.13;;;;;;;17.32;62.55;101380.47;4964488;28;101711;-67
2022/10/23 07:00:36;;;;;;;10.95;6.82;;;;;;;17.28;62.85;101392.22;4967048;28;98863;-67
2022/10/23 07:03:04;;;;;;;10.45;6.97;;;;;;;17.40;62.40;101386.22;4968658;28;96910;-68
2022/10/23 07:05:30;;;;;;;15.90;7.03;;;;;;;17.41;62.20;101386.16;4967159;28;99314;-68
2022/10/23 07:07:56;;;;;;;13.45;6.78;;;;;;;17.48;62.40;101381.34;4970917;28;98913;-69
2022/10/23 07:10:23;;;;;;;15.75;7.53;;;;;;;17.21;62.94;101373.00;4967460;28;99495;-67
2022/10/23 07:12:49;;;;;;;13.07;8.02;;;;;;;17.18;63.20;101380.31;4967203;28;97942;-68
2022/10/23 07:15:16;;;;;;;15.23;7.63;;;;;;;17.29;63.17;101378.81;4965890;28;98213;-68
2022/10/23 07:17:42;;;;;;;11.25;7.43;;;;;;;17.32;63.55;101383.13;4969137;28;101901;-69
2022/10/23 07:20:10;;;;;;;12.10;7.40;;;;;;;17.51;62.88;101382.06;4966847;28;98035;-67
2022/10/23 07:22:37;;;;;;;16.35;7.95;;;;;;;17.53;62.83;101385.50;4968984;28;97242;-68
2022/10/23 07:25:04;;;;;;;11.80;7.30;;;;;;;17.60;62.66;101386.00;4966152;28;98572;-70
2022/10/23 07:27:31;;;;;;;13.52;8.23;;;;;;;17.35;63.38;101378.47;4973785;28;98900;-70
2022/10/23 07:29:57;;;;;;;16.45;7.88;;;;;;;17.46;63.26;101380.56;4970559;28;97330;-70
2022/10/23 07:32:26;;;;;;;13.45;8.13;;;;;;;17.67;62.64;101384.78;4969832;28;97346;-70
2022/10/23 07:34:53;;;;;;;14.18;7.40;;;;;;;17.78;62.34;101384.19;4970126;28;98769;-70
2022/10/23 07:37:21;;;;;;;20.33;7.82;;;;;;;17.68;62.56;101381.16;4967847;28;101217;-71
2022/10/23 07:39:47;;;;;;;18.42;8.35;;;;;;;18.01;61.81;101377.56;4968048;28;99068;-69
2022/10/23 07:42:16;;;;;;;13.85;8.38;;;;;;;17.89;61.86;101379.97;4968324;28;96843;-67
2022/10/23 07:44:43;;;;;;;12.20;7.47;;;;;;;17.88;61.57;101380.91;4967158;28;97690;-68
2022/10/23 07:47:09;;;;;;;14.65;7.70;;;;;;;17.89;61.57;101379.97;4965906;28;101916;-69
2022/10/23 07:49:36;;;;;;;16.52;7.88;;;;;;;18.34;60.62;101380.97;4970845;28;98956;-68
2022/10/23 07:52:04;;;;;;;9.77;6.70;;;;;;;18.17;60.60;101381.09;4971391;28;96813;-67
2022/10/23 07:54:32;;;;;;;11.18;7.45;;;;;;;18.36;60.21;101376.41;4972852;28;97006;-68
2022/10/23 07:56:58;;;;;;;8.75;6.55;;;;;;;18.49;60.01;101385.47;4966470;28;101064;-69
2022/10/23 07:59:25;;;;;;;11.93;6.93;;;;;;;18.25;60.41;101379.69;4968037;28;98844;-68
2022/10/23 08:01:55;;;;;;;13.32;6.55;;;;;;;18.66;59.78;101371.97;4972137;28;98566;-68
2022/10/23 08:04:22;;;;;;;12.57;7.40;;;;;;;18.83;58.99;101365.63;4962153;28;99958;-68
2022/10/23 08:06:48;;;;;;;12.82;7.25;;;;;;;18.61;59.90;101368.69;4966186;28;98988;-68
2022/10/23 08:09:14;;;;;;;10.98;6.90;;;;;;;18.76;59.60;101366.06;4966599;28;100956;-68
2022/10/23 08:11:42;;;;;;;11.75;6.90;;;;;;;18.81;59.13;101363.97;4966568;28;96932;-67
2022/10/23 08:14:09;;;;;;;19.92;7.30;;;;;;;18.68;60.11;101369.19;4969866;28;97231;-69
2022/10/23 08:16:38;;;;;;;11.93;6.38;;;;;;;18.78;59.25;101369.50;4962265;28;99699;-69
2022/10/23 08:19:06;;;;;;;11.10;6.60;;;;;;;18.93;59.26;101363.25;4965705;28;98882;-69
2022/10/23 08:21:33;;;;;;;12.60;6.68;;;;;;;19.05;58.76;101359.81;4964711;28;97053;-68
2022/10/23 08:24:00;;;;;;;11.73;7.65;;;;;;;18.88;58.72;101358.16;4949347;28;97870;-68
2022/10/23 08:26:28;;;;;;;10.27;6.35;;;;;;;18.99;59.07;101357.50;4961070;28;98832;-67
2022/10/23 08:28:58;;;;;;;7.30;5.97;;;;;;;19.44;57.80;101367.19;4963412;28;98836;-69
2022/10/23 08:31:25;;;;;;;9.30;5.95;;;;;;;19.30;58.02;101378.78;4964511;28;98342;-69
2022/10/23 08:33:51;;;;;;;7.57;4.95;;;;;;;19.37;57.81;101374.75;4961021;28;97807;-68
2022/10/23 08:36:20;;;;;;;9.90;5.68;;;;;;;19.29;58.31;101365.50;4960752;28;99583;-69
2022/10/23 08:38:47;;;;;;;11.70;5.53;;;;;;;19.66;57.20;101366.75;4963789;28;99247;-68
2022/10/23 08:41:23;;;;;;;11.13;6.00;;;;;;;19.60;57.29;101359.97;4959371;28;97422;-72
2022/10/23 08:43:54;;;;;;;7.72;5.10;;;;;;;19.59;56.98;101365.41;4962275;28;97349;-68
2022/10/23 08:46:27;;;;;;;10.70;4.90;;;;;;;19.59;57.02;101365.41;4963943;28;99728;-68
2022/10/23 08:48:58;;;;;;;14.35;5.85;;;;;;;19.87;56.79;101366.25;4959727;28;99458;-67
2022/10/23 08:51:28;;;;;;;12.85;4.82;;;;;;;20.27;55.06;101356.47;4960585;28;97313;-69
2022/10/23 08:54:02;;;;;;;10.68;4.70;;;;;;;19.73;56.02;101368.09;4963217;28;98391;-68
2022/10/23 08:56:34;;;;;;;8.07;4.30;;;;;;;19.63;56.81;101364.25;4962742;28;99032;-68
2022/10/23 08:59:09;;;;;;;7.85;4.20;;;;;;;19.94;56.00;101364.03;4957590;28;99124;-68
2022/10/23 09:01:40;;;;;;;10.88;4.30;;;;;;;20.18;55.43;101357.06;4963686;28;96855;-68
2022/10/23 09:04:06;;;;;;;9.32;4.20;;;;;;;19.98;55.17;101360.19;4961921;28;97126;-68
2022/10/23 09:06:41;;;;;;;12.57;4.30;;;;;;;20.13;55.52;101358.31;4962097;28;99398;-67
2022/10/23 09:09:35;;;;;;;10.73;3.95;;;;;;;20.11;55.31;101358.41;4961263;28;99335;-68
2022/10/23 09:12:07;;;;;;;7.50;4.00;;;;;;;20.51;54.62;101358.50;4962410;28;100206;-68
2022/10/23 09:15:04;;;;;;;7.88;4.10;;;;;;;20.08;55.25;101360.47;4959277;28;97246;-68
2022/10/23 09:17:34;;;;;;;9.98;3.53;;;;;;;20.20;55.26;101365.00;4956370;28;99324;-67
2022/10/23 09:20:12;;;;;;;12.85;4.35;;;;;;;20.47;54.42;101359.66;4961182;28;99094;-68
2022/10/23 09:22:39;;;;;;;9.60;3.60;;;;;;;20.34;54.76;101354.25;4964074;28;99565;-69
2022/10/23 09:25:09;;;;;;;8.88;3.58;;;;;;;20.54;54.69;101343.06;4970727;28;96870;-69
2022/10/23 09:27:36;;;;;;;11.18;4.18;;;;;;;20.79;53.75;101341.38;4965344;28;99529;-69
2022/10/23 09:30:02;;;;;;;13.85;5.13;;;;;;;21.06;52.99;101336.78;4961881;28;99069;-68
2022/10/23 09:32:38;;;;;;;6.10;4.32;;;;;;;21.07;52.98;101336.66;4964583;28;97423;-71
2022/10/23 09:35:06;;;;;;;9.73;4.33;;;;;;;20.88;53.37;101343.41;4959233;28;97578;-69
2022/10/23 09:37:34;;;;;;;6.88;4.10;;;;;;;21.32;52.60;101343.03;4968544;28;98249;-69
2022/10/23 09:40:03;;;;;;;9.45;4.45;;;;;;;21.22;52.14;101350.03;4967246;28;99770;-69
2022/10/23 09:42:29;;;;;;;11.50;4.60;;;;;;;21.58;51.71;101350.09;4966862;28;96807;-69
2022/10/23 09:44:56;;;;;;;10.13;3.67;;;;;;;21.64;51.76;101346.97;4968134;28;97335;-70
2022/10/23 09:47:25;;;;;;;7.65;4.03;;;;;;;21.90;51.20;101346.91;4975465;28;99015;-69
2022/10/23 09:49:54;;;;;;;9.40;4.00;;;;;;;22.01;50.69;101352.38;4976439;28;99700;-69
2022/10/23 09:52:28;;;;;;;7.15;3.55;;;;;;;21.73;50.44;101338.22;4974630;28;97662;-68
2022/10/23 09:54:57;;;;;;;6.95;3.35;;;;;;;21.73;50.52;101335.53;4969207;28;97043;-68
2022/10/23 09:57:29;;;;;;;8.30;3.58;;;;;;;21.88;50.02;101339.81;4971332;28;100631;-69
2022/10/23 09:59:59;;;;;;;11.82;3.33;;;;;;;22.03;50.07;101347.75;4968411;28;98869;-70
2022/10/23 10:02:28;;;;;;;7.38;3.47;;;;;;;21.78;50.49;101333.38;4972309;28;96792;-69
2022/10/23 10:04:58;;;;;;;9.60;2.53;;;;;;;21.79;50.62;101334.25;4967197;28;98778;-69
2022/10/23 10:07:27;;;;;;;5.20;3.13;;;;;;;21.91;50.31;101337.88;4967695;28;97651;-67
2022/10/23 10:09:56;;;;;;;11.00;3.42;;;;;;;21.85;50.20;101331.97;4973161;28;97923;-69
2022/10/23 10:12:47;;;;;;;8.25;3.10;;;;;;;21.75;50.11;101328.22;4973787;28;97004;-69
2022/10/23 10:15:22;;;;;;;6.93;2.70;;;;;;;22.01;49.77;101328.16;4968847;28;97483;-68
2022/10/23 10:17:58;;;;;;;5.18;2.30;;;;;;;22.21;49.07;101322.16;4966933;28;99195;-69
2022/10/23 10:20:49;;;;;;;13.07;3.88;;;;;;;22.34;49.30;101330.16;4966660;28;97593;-70
2022/10/23 10:23:28;;;;;;;5.18;2.38;;;;;;;22.46;48.61;101321.16;4970143;28;96804;-69
2022/10/23 10:26:03;;;;;;;4.88;2.20;;;;;;;22.69;48.35;101314.88;4966325;28;97125;-68
2022/10/23 10:28:44;;;;;;;3.93;1.97;;;;;;;22.63;48.04;101309.97;4965758;28;99148;-69
2022/10/23 10:31:20;;;;;;;5.45;2.00;;;;;;;22.72;47.47;101305.69;4966609;28;99448;-69
2022/10/23 10:34:00;;;;;;;8.18;1.85;;;;;;;22.44;47.53;101291.69;4965275;28;96833;-69
2022/10/23 10:36:45;;;;;;;6.78;1.40;;;;;;;22.47;47.22;101307.59;4965888;28;96943;-69
2022/10/23 10:39:21;;;;;;;7.47;2.00;;;;;;;22.45;47.76;101303.31;4965491;28;97830;-68
2022/10/23 10:42:04;;;;;;;6.90;1.58;;;;;;;22.57;47.55;101302.38;4967394;28;99010;-68
2022/10/23 10:44:45;;;;;;;5.40;1.77;;;;;;;22.21;48.18;101301.47;4965318;28;98520;-69
2022/10/23 10:47:18;;;;;;;5.88;1.70;;;;;;;22.25;48.39;101294.88;4965964;28;97088;-69
2022/10/23 10:49:54;;;;;;;4.70;1.65;;;;;;;22.01;49.21;101295.88;4967637;28;99007;-69
2022/10/23 10:52:30;;;;;;;3.38;1.67;;;;;;;22.29;48.91;101289.28;4965859;28;101085;-71
2022/10/23 10:55:08;;;;;;;7.85;1.98;;;;;;;22.22;48.85;101292.44;4969892;28;96984;-70
2022/10/23 10:57:41;;;;;;;6.18;2.33;;;;;;;22.35;48.86;101289.69;4968357;28;98024;-68
2022/10/23 11:00:15;;;;;;;7.88;2.22;;;;;;;22.38;49.14;101292.16;4967702;28;98939;-69
2022/10/23 11:02:45;;;;;;;4.20;1.75;;;;;;;22.31;49.43;101288.19;4969390;28;98785;-69
2022/10/23 11:05:25;;;;;;;4.43;1.60;;;;;;;22.34;49.44;101274.50;4970250;28;97078;-69
2022/10/23 11:08:00;;;;;;;7.63;2.15;;;;;;;22.64;49.36;101272.13;4967700;28;97262;-68
2022/10/23 11:10:28;;;;;;;5.68;1.75;;;;;;;22.77;49.00;101265.84;4972025;28;99491;-70
2022/10/23 11:12:54;;;;;;;6.50;2.00;;;;;;;22.87;49.07;101269.50;4971061;28;101473;-71
2022/10/23 11:15:26;;;;;;;8.73;2.00;;;;;;;23.01;48.56;101261.19;4972223;28;97073;-69
2022/10/23 11:17:57;;;;;;;10.10;1.90;;;;;;;22.89;48.51;101259.47;4963456;28;96987;-70
2022/10/23 11:20:44;;;;;;;7.25;1.90;;;;;;;23.28;48.07;101253.59;4962604;28;100129;-71
2022/10/23 11:23:41;;;;;;;5.28;1.80;;;;;;;23.55;47.41;101255.06;4961120;28;99215;-69
2022/10/23 11:26:20;;;;;;;6.30;2.08;;;;;;;23.43;47.77;101249.66;4965307;28;98607;-70
2022/10/23 11:29:02;;;;;;;9.88;2.00;;;;;;;23.16;47.54;101243.81;4963726;28;98958;-68
2022/10/23 11:31:38;;;;;;;4.97;1.63;;;;;;;22.98;47.90;101242.56;4971368;28;99536;-69